createdAt,value
2018-01-04T00:11:10.813Z,81.2
2018-01-04T00:27:47.684Z,81.6
2018-01-04T00:44:24.581Z,81.6
2018-01-04T01:01:02.225Z,81.2
2018-01-04T01:17:38.634Z,81.6
2018-01-04T01:34:15.591Z,81.6
2018-01-04T01:50:52.770Z,80.8
2018-01-04T02:07:29.974Z,80.8
2018-01-04T02:24:07.204Z,80.8
2018-01-04T02:40:44.426Z,80.8
2018-01-04T03:30:35.812Z,80.4
2018-01-04T03:47:13.733Z,80.0
2018-01-04T04:03:50.113Z,80.4
2018-01-04T04:20:27.195Z,80.0
2018-01-04T04:37:04.371Z,80.0
2018-01-04T04:53:41.674Z,79.6
2018-01-04T05:10:18.897Z,79.6
2018-01-04T05:26:56.093Z,79.6
2018-01-04T05:43:33.728Z,79.2
2018-01-04T06:00:10.437Z,78.8
2018-01-04T06:16:47.579Z,78.8
2018-01-04T06:33:24.687Z,78.8
2018-01-04T06:50:01.767Z,79.2
2018-01-04T07:06:38.805Z,79.6
2018-01-04T07:23:16.369Z,80.0
2018-01-04T07:39:53.110Z,79.6
2018-01-04T07:56:30.128Z,79.6
2018-01-04T08:13:07.519Z,79.6
2018-01-04T08:29:45.297Z,79.6
2018-01-04T08:46:22.198Z,79.6
2018-01-04T09:19:37.207Z,79.6
2018-01-04T09:36:15.119Z,79.2
2018-01-04T09:52:52.722Z,79.2
2018-01-04T10:09:30.402Z,79.2
2018-01-04T10:26:08.095Z,79.2
2018-01-04T10:42:45.953Z,79.2
2018-01-04T10:59:23.903Z,78.8
2018-01-04T11:16:06.133Z,78.8
2018-01-04T11:32:44.077Z,78.8
2018-01-04T11:49:21.975Z,78.8
2018-01-04T12:06:00.249Z,78.4
2018-01-04T12:22:37.265Z,78.8
2018-01-04T12:39:15.913Z,79.2
2018-01-04T12:55:50.899Z,78.8
2018-01-04T13:12:29.361Z,78.4
2018-01-04T13:29:07.944Z,78.4
2018-01-04T13:45:46.494Z,78.4
2018-01-04T14:02:25.530Z,78.0
2018-01-04T14:19:03.225Z,78.8
2018-01-04T14:35:41.430Z,78.8
2018-01-04T14:52:19.344Z,80.0
2018-01-04T15:08:57.271Z,80.8
2018-01-04T15:25:35.151Z,80.8
2018-01-04T15:42:12.553Z,81.2
2018-01-04T15:58:49.724Z,82.0
2018-01-04T16:15:27.093Z,82.0
2018-01-04T16:32:04.610Z,82.8
2018-01-04T16:48:42.272Z,83.2
2018-01-04T17:05:20.124Z,83.2
2018-01-04T17:21:58.158Z,83.6
2018-01-04T17:38:36.936Z,84.0
2018-01-04T17:55:14.790Z,84.4
2018-01-04T18:11:53.103Z,84.8
2018-01-04T18:28:31.841Z,84.8
2018-01-04T18:45:10.709Z,85.2
2018-01-04T19:01:49.758Z,84.4
2018-01-04T19:18:29.256Z,84.0
2018-01-04T19:51:47.376Z,82.8
2018-01-04T20:08:26.632Z,82.8
2018-01-04T20:25:07.448Z,82.8
2018-01-04T20:41:45.611Z,82.4
2018-01-04T20:58:22.290Z,82.0
2018-01-04T21:15:02.259Z,81.6
2018-01-04T21:31:39.064Z,80.8
2018-01-04T21:48:17.365Z,80.0
2018-01-04T22:04:55.772Z,79.2
2018-01-04T22:21:33.932Z,77.6
2018-01-04T22:38:11.690Z,75.2
2018-01-04T22:54:49.693Z,74.4
2018-01-04T23:11:27.536Z,73.6
2018-01-04T23:28:05.395Z,72.8
2018-01-04T23:44:43.251Z,72.8
